createdAt,value
2017-01-11T04:00:25.535Z,1008.52
2017-01-11T04:00:51.091Z,1008.51
2017-01-11T04:01:16.656Z,1008.54
2017-01-11T04:01:42.270Z,1008.57
2017-01-11T04:02:07.942Z,1008.6
2017-01-11T04:02:33.517Z,1008.57
2017-01-11T04:02:59.138Z,1008.63
2017-01-11T04:03:24.724Z,1008.65
2017-01-11T04:03:50.288Z,1008.61
2017-01-11T04:04:15.928Z,1008.64
2017-01-11T04:04:41.496Z,1008.61
2017-01-11T04:05:07.079Z,1008.68
2017-01-11T04:05:32.648Z,1008.59
2017-01-11T04:05:58.251Z,1008.64
2017-01-11T04:06:24.509Z,1008.61
2017-01-11T04:06:50.101Z,1008.6
2017-01-11T04:07:15.722Z,1008.62
2017-01-11T04:07:41.473Z,1008.61
2017-01-11T04:08:07.052Z,1008.68
2017-01-11T04:08:32.612Z,1008.61
2017-01-11T04:09:46.638Z,1008.6
2017-01-11T04:10:12.209Z,1008.57
2017-01-11T04:10:37.788Z,1008.54
2017-01-11T04:11:03.396Z,1008.55
2017-01-11T04:11:28.972Z,1008.52
2017-01-11T04:11:54.534Z,1008.5
2017-01-11T04:12:20.173Z,1008.5
2017-01-11T04:12:45.770Z,1008.51
2017-01-11T04:13:11.338Z,1008.53
2017-01-11T04:13:36.921Z,1008.4
2017-01-11T04:14:02.509Z,1008.41
2017-01-11T04:14:28.081Z,1008.46
2017-01-11T04:14:53.651Z,1008.47
2017-01-11T04:15:19.347Z,1008.47
2017-01-11T04:15:44.953Z,1008.41
2017-01-11T04:16:10.509Z,1008.45
2017-01-11T04:16:36.130Z,1008.42
2017-01-11T04:17:01.735Z,1008.43
2017-01-11T04:17:27.288Z,1008.4
2017-01-11T04:17:52.873Z,1008.37
2017-01-11T04:18:18.442Z,1008.41
2017-01-11T04:18:44.020Z,1008.32
2017-01-11T04:19:09.596Z,1008.34
2017-01-11T04:19:35.164Z,1008.34
2017-01-11T04:20:00.732Z,1008.27
2017-01-11T04:20:26.333Z,1008.25
2017-01-11T04:20:51.948Z,1008.26
2017-01-11T04:21:17.510Z,1008.22
2017-01-11T04:21:43.158Z,1008.19
2017-01-11T04:22:08.724Z,1008.17
2017-01-11T04:22:34.292Z,1008.2
2017-01-11T04:22:59.870Z,1008.15
2017-01-11T04:23:25.441Z,1008.2
2017-01-11T04:23:51.003Z,1008.14
2017-01-11T04:24:16.582Z,1008.13
2017-01-11T04:24:42.149Z,1008.14
2017-01-11T04:25:07.703Z,1008.07
2017-01-11T04:25:33.276Z,1008.07
2017-01-11T04:25:58.838Z,1008.06
2017-01-11T04:26:24.405Z,1008.03
2017-01-11T04:26:49.956Z,1008.03
2017-01-11T04:27:15.533Z,1007.97
2017-01-11T04:27:41.104Z,1007.99
2017-01-11T04:28:06.655Z,1007.95
2017-01-11T04:28:32.205Z,1007.93
2017-01-11T04:28:57.771Z,1008
2017-01-11T04:29:23.341Z,1007.97
2017-01-11T04:29:48.901Z,1007.97
2017-01-11T04:30:14.461Z,1007.97
2017-01-11T04:30:40.040Z,1007.93
2017-01-11T04:31:05.601Z,1008.03
2017-01-11T04:31:31.196Z,1008
2017-01-11T04:31:56.895Z,1008
2017-01-11T04:32:22.450Z,1007.99
2017-01-11T04:32:48.068Z,1008
2017-01-11T04:33:13.743Z,1007.99
2017-01-11T04:33:39.314Z,1007.98
2017-01-11T04:34:04.890Z,1008
2017-01-11T04:34:30.495Z,1008.02
2017-01-11T04:34:56.058Z,1007.94
2017-01-11T04:35:21.621Z,1007.98
2017-01-11T04:35:47.204Z,1007.93
2017-01-11T04:36:12.875Z,1007.92
2017-01-11T04:36:38.433Z,1007.95
2017-01-11T04:37:03.991Z,1007.93
2017-01-11T04:37:29.646Z,1007.88
2017-01-11T04:37:55.194Z,1007.93
2017-01-11T04:38:20.753Z,1007.88
2017-01-11T04:38:46.324Z,1007.77
2017-01-11T04:39:12.052Z,1007.69
2017-01-11T04:39:37.621Z,1007.72
2017-01-11T04:40:03.190Z,1007.64
2017-01-11T04:40:28.873Z,1007.56
2017-01-11T04:40:54.426Z,1007.52
2017-01-11T04:41:20.074Z,1007.52
2017-01-11T04:41:45.696Z,1007.43
2017-01-11T04:42:11.256Z,1007.44
2017-01-11T04:42:36.825Z,1007.37
2017-01-11T04:43:02.492Z,1007.35
2017-01-11T04:43:28.062Z,1007.3
2017-01-11T04:43:53.718Z,1007.29
2017-01-11T04:44:19.273Z,1007.23
2017-01-11T04:44:44.905Z,1007.16
2017-01-11T04:45:10.473Z,1007.17
2017-01-11T04:45:36.021Z,1007.1
2017-01-11T04:46:01.673Z,1007.05
2017-01-11T04:46:27.246Z,1007.09
2017-01-11T04:46:52.822Z,1007.14
2017-01-11T04:47:18.416Z,1007.11
2017-01-11T04:47:43.987Z,1007.12
2017-01-11T04:48:09.544Z,1007.12
2017-01-11T04:48:35.099Z,1007.19
2017-01-11T04:49:00.665Z,1007.18
2017-01-11T04:49:26.219Z,1007.18
2017-01-11T04:49:51.800Z,1007.18
2017-01-11T04:50:17.358Z,1007.21
2017-01-11T04:50:43.065Z,1007.18
2017-01-11T04:51:08.642Z,1007.19
2017-01-11T04:51:34.204Z,1007.24
2017-01-11T04:51:59.774Z,1007.2
2017-01-11T04:52:25.356Z,1007.23
2017-01-11T04:52:50.922Z,1007.2
2017-01-11T04:53:16.482Z,1007.25
2017-01-11T04:53:42.089Z,1007.21
2017-01-11T04:54:07.730Z,1007.25
2017-01-11T04:54:33.304Z,1007.27
2017-01-11T04:54:58.925Z,1007.16
2017-01-11T04:55:24.496Z,1007.23
2017-01-11T04:55:50.045Z,1007.21
2017-01-11T04:56:15.629Z,1007.22
2017-01-11T04:56:41.193Z,1007.24
2017-01-11T04:57:44.403Z,1007.21
2017-01-11T04:58:09.964Z,1007.22
2017-01-11T04:58:35.728Z,1007.17
2017-01-11T04:59:01.204Z,1007.17
2017-01-11T04:59:26.772Z,1007.2
2017-01-11T04:59:52.670Z,1007.17
2017-01-11T05:00:18.272Z,1007.15
2017-01-11T05:00:43.847Z,1007.11
2017-01-11T05:01:09.412Z,1007.07
2017-01-11T05:01:34.988Z,1007.01
2017-01-11T05:02:00.611Z,1007.05
2017-01-11T05:02:26.174Z,1007.04
2017-01-11T05:02:51.735Z,1007
2017-01-11T05:03:17.303Z,1007.02
2017-01-11T05:03:42.859Z,1007.06
2017-01-11T05:04:08.416Z,1007.02
2017-01-11T05:04:33.964Z,1007.02
2017-01-11T05:04:59.516Z,1007.03
2017-01-11T05:05:25.112Z,1007.06
2017-01-11T05:05:50.853Z,1007.09
2017-01-11T05:06:16.409Z,1007.03
2017-01-11T05:06:41.944Z,1007.05
2017-01-11T05:07:07.540Z,1007
2017-01-11T05:07:33.110Z,1007.02
2017-01-11T05:07:58.649Z,1006.98
2017-01-11T05:08:24.286Z,1006.99
2017-01-11T05:08:49.816Z,1006.94
2017-01-11T05:09:15.387Z,1006.86
2017-01-11T05:09:40.975Z,1006.86
2017-01-11T05:10:06.541Z,1006.77
2017-01-11T05:10:32.123Z,1006.77
2017-01-11T05:10:57.681Z,1006.67
2017-01-11T05:11:23.222Z,1006.64
2017-01-11T05:11:48.782Z,1006.58
2017-01-11T05:12:14.361Z,1006.61
2017-01-11T05:12:39.895Z,1006.6
2017-01-11T05:13:05.457Z,1006.6
2017-01-11T05:13:31.119Z,1006.56
2017-01-11T05:13:56.681Z,1006.58
2017-01-11T05:14:22.355Z,1006.65
2017-01-11T05:14:47.981Z,1006.68
2017-01-11T05:15:13.549Z,1006.7
2017-01-11T05:15:39.200Z,1006.72
2017-01-11T05:16:04.772Z,1006.84
2017-01-11T05:16:30.345Z,1006.77
2017-01-11T05:16:55.998Z,1006.76
2017-01-11T05:17:21.637Z,1006.74
2017-01-11T05:17:47.204Z,1006.78
2017-01-11T05:18:12.786Z,1006.77
2017-01-11T05:18:38.358Z,1006.76
2017-01-11T05:19:04.001Z,1006.81
2017-01-11T05:19:29.565Z,1006.76
2017-01-11T05:19:55.144Z,1006.79
2017-01-11T05:20:20.762Z,1006.75
2017-01-11T05:20:46.330Z,1006.83
2017-01-11T05:21:11.905Z,1006.75
2017-01-11T05:21:37.483Z,1006.88
2017-01-11T05:22:03.068Z,1006.78
2017-01-11T05:22:28.646Z,1006.79
2017-01-11T05:22:54.204Z,1006.76
2017-01-11T05:23:19.770Z,1006.77
2017-01-11T05:23:45.384Z,1006.82
2017-01-11T05:24:10.966Z,1006.77
2017-01-11T05:24:36.525Z,1006.8
2017-01-11T05:25:02.196Z,1006.79
2017-01-11T05:25:27.844Z,1006.73
2017-01-11T05:25:53.357Z,1006.69
2017-01-11T05:26:18.949Z,1006.65
2017-01-11T05:26:44.573Z,1006.62
2017-01-11T05:27:10.146Z,1006.6
2017-01-11T05:27:35.714Z,1006.6
2017-01-11T05:28:01.316Z,1006.55
2017-01-11T05:28:26.911Z,1006.51
2017-01-11T05:28:52.508Z,1006.51
2017-01-11T05:29:18.081Z,1006.44
2017-01-11T05:29:43.719Z,1006.49
2017-01-11T05:30:09.289Z,1006.5
2017-01-11T05:30:34.844Z,1006.55
2017-01-11T05:31:00.420Z,1006.57
2017-01-11T05:31:25.980Z,1006.59
2017-01-11T05:31:51.606Z,1006.62
2017-01-11T05:32:17.166Z,1006.66
2017-01-11T05:32:42.731Z,1006.65
2017-01-11T05:33:08.378Z,1006.73
2017-01-11T05:33:33.943Z,1006.69
2017-01-11T05:33:59.508Z,1006.68
2017-01-11T05:34:25.070Z,1006.6
2017-01-11T05:34:50.630Z,1006.63
2017-01-11T05:35:16.210Z,1006.6
2017-01-11T05:35:41.827Z,1006.55
2017-01-11T05:36:07.444Z,1006.45
2017-01-11T05:36:33.060Z,1006.46
2017-01-11T05:36:58.645Z,1006.39
2017-01-11T05:37:24.223Z,1006.38
2017-01-11T05:37:49.832Z,1006.28
2017-01-11T05:38:15.396Z,1006.29
2017-01-11T05:38:40.974Z,1006.35
2017-01-11T05:39:06.541Z,1006.36
2017-01-11T05:39:32.146Z,1006.27
2017-01-11T05:39:57.724Z,1006.28
2017-01-11T05:40:23.276Z,1006.26
2017-01-11T05:40:48.853Z,1006.26
2017-01-11T05:41:14.546Z,1006.27
2017-01-11T05:41:40.105Z,1006.18
2017-01-11T05:42:05.653Z,1006.17
2017-01-11T05:42:31.351Z,1006.21
2017-01-11T05:42:56.970Z,1006.16
2017-01-11T05:43:22.649Z,1006.09
2017-01-11T05:43:48.204Z,1006.06
2017-01-11T05:44:13.828Z,1006.05
2017-01-11T05:44:39.396Z,1005.96
2017-01-11T05:45:04.967Z,1005.98
2017-01-11T05:45:30.520Z,1005.98
2017-01-11T05:45:56.084Z,1005.98
2017-01-11T05:46:21.645Z,1005.98
2017-01-11T05:46:47.234Z,1005.97
2017-01-11T05:47:12.916Z,1005.95
2017-01-11T05:47:38.496Z,1005.98
2017-01-11T05:48:04.090Z,1005.97
2017-01-11T05:48:29.690Z,1006
2017-01-11T05:48:55.244Z,1005.96
2017-01-11T05:49:20.845Z,1005.97
2017-01-11T05:49:46.457Z,1005.98
2017-01-11T05:50:12.015Z,1005.95
2017-01-11T05:50:37.581Z,1005.97
2017-01-11T05:51:03.154Z,1005.99
2017-01-11T05:51:28.718Z,1005.97
2017-01-11T05:51:54.265Z,1005.98
2017-01-11T05:52:19.929Z,1006.01
2017-01-11T05:52:45.485Z,1005.95
2017-01-11T05:53:11.058Z,1005.96
2017-01-11T05:53:36.769Z,1005.96
2017-01-11T05:54:02.352Z,1005.98
2017-01-11T05:54:27.951Z,1006.01
2017-01-11T05:54:53.610Z,1005.94
2017-01-11T05:55:19.186Z,1005.95
2017-01-11T05:55:44.738Z,1005.99
2017-01-11T05:56:10.350Z,1005.99
2017-01-11T05:56:35.912Z,1005.98
2017-01-11T05:57:01.485Z,1006.03
2017-01-11T05:57:27.061Z,1006.06
2017-01-11T05:57:52.677Z,1006.02
2017-01-11T05:58:18.261Z,1005.99
2017-01-11T05:58:43.837Z,1006.05
2017-01-11T05:59:09.491Z,1006.09
2017-01-11T05:59:35.046Z,1006.06
2017-01-11T06:00:00.608Z,1006.03
2017-01-11T06:00:26.176Z,1006.06
2017-01-11T06:00:51.753Z,1006.07
2017-01-11T06:01:17.358Z,1006.11
2017-01-11T06:01:43.035Z,1006.08
2017-01-11T06:02:08.595Z,1006.08
2017-01-11T06:02:34.155Z,1006.14
2017-01-11T06:02:59.753Z,1006.1
2017-01-11T06:03:25.323Z,1006.06
2017-01-11T06:03:50.882Z,1006.11
2017-01-11T06:04:16.557Z,1006.08
2017-01-11T06:04:42.134Z,1006.02
2017-01-11T06:05:07.705Z,1006
2017-01-11T06:05:33.259Z,1006.02
2017-01-11T06:05:58.951Z,1006.02
2017-01-11T06:06:24.518Z,1006
2017-01-11T06:06:50.079Z,1005.99
2017-01-11T06:07:15.782Z,1005.99
2017-01-11T06:07:41.343Z,1005.96
2017-01-11T06:08:06.899Z,1005.97
2017-01-11T06:08:32.552Z,1005.96
2017-01-11T06:08:58.117Z,1005.99
2017-01-11T06:09:23.694Z,1006
2017-01-11T06:09:49.310Z,1005.99
2017-01-11T06:10:14.949Z,1005.96
2017-01-11T06:10:40.501Z,1005.94
2017-01-11T06:11:07.064Z,1005.88
2017-01-11T06:11:32.655Z,1005.99
2017-01-11T06:11:58.245Z,1005.93
2017-01-11T06:12:23.907Z,1005.95
2017-01-11T06:12:49.484Z,1005.93
2017-01-11T06:13:15.054Z,1005.95
2017-01-11T06:13:40.750Z,1005.9
2017-01-11T06:14:06.312Z,1005.9
2017-01-11T06:14:31.864Z,1005.91
2017-01-11T06:14:57.444Z,1005.87
2017-01-11T06:15:23.158Z,1005.88
2017-01-11T06:15:48.973Z,1005.92
2017-01-11T06:16:14.534Z,1005.83
2017-01-11T06:16:40.091Z,1005.84
2017-01-11T06:17:05.673Z,1005.82
2017-01-11T06:17:31.243Z,1005.8
2017-01-11T06:17:56.830Z,1005.81
2017-01-11T06:18:22.382Z,1005.84
2017-01-11T06:18:47.962Z,1005.81
2017-01-11T06:19:13.609Z,1005.77
2017-01-11T06:19:39.201Z,1005.76
2017-01-11T06:20:04.764Z,1005.73
2017-01-11T06:20:30.315Z,1005.77
2017-01-11T06:20:55.877Z,1005.7
2017-01-11T06:21:21.443Z,1005.66
2017-01-11T06:21:47.025Z,1005.71
2017-01-11T06:22:12.739Z,1005.57
2017-01-11T06:22:38.303Z,1005.65
2017-01-11T06:23:03.880Z,1005.64
2017-01-11T06:23:29.479Z,1005.61
2017-01-11T06:23:55.156Z,1005.58
2017-01-11T06:24:20.716Z,1005.61
2017-01-11T06:24:46.273Z,1005.53
2017-01-11T06:25:11.854Z,1005.69
2017-01-11T06:25:37.423Z,1005.59
2017-01-11T06:26:02.980Z,1005.5
2017-01-11T06:26:28.532Z,1005.51
2017-01-11T06:26:54.178Z,1005.46
2017-01-11T06:27:19.780Z,1005.43
2017-01-11T06:27:45.346Z,1005.44
2017-01-11T06:28:10.902Z,1005.42
2017-01-11T06:28:36.581Z,1005.43
2017-01-11T06:29:02.166Z,1005.34
2017-01-11T06:29:27.731Z,1005.27
2017-01-11T06:29:53.417Z,1005.29
2017-01-11T06:30:18.996Z,1005.23
2017-01-11T06:30:44.564Z,1005.25
2017-01-11T06:31:10.193Z,1005.26
2017-01-11T06:31:35.806Z,1005.24
2017-01-11T06:32:01.390Z,1005.28
2017-01-11T06:32:26.964Z,1005.25
2017-01-11T06:32:52.606Z,1005.22
2017-01-11T06:33:18.164Z,1005.23
2017-01-11T06:33:43.705Z,1005.18
2017-01-11T06:34:52.789Z,1005.25
2017-01-11T06:35:18.396Z,1005.22
2017-01-11T06:35:43.938Z,1005.21
2017-01-11T06:36:09.689Z,1005.16
2017-01-11T06:36:35.242Z,1005.15
2017-01-11T06:37:00.816Z,1005.11
2017-01-11T06:37:26.389Z,1005.09
2017-01-11T06:37:51.951Z,1005.11
2017-01-11T06:38:17.581Z,1005.02
2017-01-11T06:38:43.160Z,1005.05
2017-01-11T06:39:08.743Z,1005.03
2017-01-11T06:39:34.379Z,1005
2017-01-11T06:39:59.934Z,1005.03
2017-01-11T06:40:25.484Z,1004.96
2017-01-11T06:40:51.072Z,1004.96
2017-01-11T06:41:16.656Z,1004.93
2017-01-11T06:41:42.210Z,1005
2017-01-11T06:42:07.806Z,1004.98
2017-01-11T06:42:33.368Z,1004.98
2017-01-11T06:42:58.921Z,1004.98
2017-01-11T06:43:24.575Z,1005
2017-01-11T06:43:50.134Z,1004.95
2017-01-11T06:44:15.722Z,1004.94
2017-01-11T06:44:41.282Z,1004.93
2017-01-11T06:45:06.860Z,1004.97
2017-01-11T06:45:32.410Z,1004.91
2017-01-11T06:45:57.977Z,1004.9
2017-01-11T06:46:23.591Z,1004.88
2017-01-11T06:46:49.160Z,1004.88
2017-01-11T06:47:14.776Z,1004.87
2017-01-11T06:47:40.344Z,1004.85
2017-01-11T06:48:05.914Z,1004.85
2017-01-11T06:48:31.479Z,1004.82
2017-01-11T06:48:57.162Z,1004.83
2017-01-11T06:49:22.719Z,1004.84
2017-01-11T06:49:48.320Z,1004.8
2017-01-11T06:50:13.898Z,1004.75
2017-01-11T06:50:39.464Z,1004.77
2017-01-11T06:51:58.170Z,1004.7
2017-01-11T06:52:23.800Z,1004.64
2017-01-11T06:52:49.394Z,1004.61
2017-01-11T06:53:14.944Z,1004.6
2017-01-11T06:53:40.531Z,1004.65
2017-01-11T06:54:06.090Z,1004.64
2017-01-11T06:54:31.642Z,1004.62
2017-01-11T06:54:57.315Z,1004.66
2017-01-11T06:55:22.986Z,1004.65
2017-01-11T06:55:48.577Z,1004.58
2017-01-11T06:56:14.164Z,1004.58
2017-01-11T06:56:39.739Z,1004.54
2017-01-11T06:57:05.292Z,1004.55
2017-01-11T06:57:30.859Z,1004.5
2017-01-11T06:57:56.445Z,1004.46
2017-01-11T06:58:22.085Z,1004.4
2017-01-11T06:58:47.685Z,1004.35
2017-01-11T06:59:13.263Z,1004.51
2017-01-11T06:59:38.862Z,1004.41
2017-01-11T07:00:04.418Z,1004.45
2017-01-11T07:01:02.557Z,1004.35
2017-01-11T07:01:28.146Z,1004.37
2017-01-11T07:01:53.807Z,1004.38
2017-01-11T07:02:19.381Z,1004.31
2017-01-11T07:02:44.941Z,1004.44
2017-01-11T07:03:10.559Z,1004.4
2017-01-11T07:03:36.131Z,1004.44
2017-01-11T07:04:01.701Z,1004.42
2017-01-11T07:04:28.276Z,1004.56
2017-01-11T07:04:53.909Z,1004.55
2017-01-11T07:05:19.482Z,1004.57
2017-01-11T07:05:45.075Z,1004.59
2017-01-11T07:06:10.641Z,1004.52
2017-01-11T07:06:36.202Z,1004.51
2017-01-11T07:07:01.791Z,1004.48
2017-01-11T07:07:27.360Z,1004.58
2017-01-11T07:07:52.939Z,1004.5
2017-01-11T07:08:18.508Z,1004.57
2017-01-11T07:08:44.158Z,1004.41
2017-01-11T07:09:09.726Z,1004.44
2017-01-11T07:09:35.340Z,1004.44
2017-01-11T07:10:00.899Z,1004.52
2017-01-11T07:10:26.538Z,1004.32
2017-01-11T07:10:52.105Z,1004.33
2017-01-11T07:11:17.666Z,1004.31
2017-01-11T07:11:43.283Z,1004.26
2017-01-11T07:12:08.841Z,1004.31
2017-01-11T07:12:34.398Z,1004.21
2017-01-11T07:13:00.014Z,1004.02
2017-01-11T07:13:25.579Z,1004.02
2017-01-11T07:13:51.147Z,1004.02
2017-01-11T07:14:16.721Z,1003.96
2017-01-11T07:14:42.288Z,1003.98
2017-01-11T07:15:07.851Z,1003.96
2017-01-11T07:15:33.451Z,1003.96
2017-01-11T07:15:59.063Z,1003.96
2017-01-11T07:16:24.632Z,1004.01
2017-01-11T07:16:50.353Z,1003.98
2017-01-11T07:17:15.955Z,1004.04
2017-01-11T07:17:41.537Z,1004.05
2017-01-11T07:18:07.139Z,1004.02
2017-01-11T07:18:32.715Z,1004.06
2017-01-11T07:18:58.316Z,1004
2017-01-11T07:19:23.861Z,1004.03
2017-01-11T07:19:49.410Z,1003.96
2017-01-11T07:20:15.030Z,1003.99
2017-01-11T07:20:40.565Z,1003.91
2017-01-11T07:21:06.261Z,1003.92
2017-01-11T07:21:31.828Z,1003.97
2017-01-11T07:21:57.367Z,1003.92
2017-01-11T07:22:22.905Z,1003.87
2017-01-11T07:22:48.465Z,1003.89
2017-01-11T07:23:14.012Z,1003.91
2017-01-11T07:23:39.655Z,1003.92
2017-01-11T07:24:05.196Z,1003.86
2017-01-11T07:24:30.745Z,1003.9
2017-01-11T07:24:56.452Z,1003.85
2017-01-11T07:25:22.019Z,1003.88
2017-01-11T07:25:47.574Z,1003.89
2017-01-11T07:26:13.233Z,1003.85
2017-01-11T07:26:38.801Z,1003.84
2017-01-11T07:27:04.388Z,1003.75
2017-01-11T07:27:29.966Z,1003.77
2017-01-11T07:27:55.554Z,1003.75
2017-01-11T07:28:21.164Z,1003.77
2017-01-11T07:28:46.823Z,1003.76
2017-01-11T07:29:12.558Z,1003.76
2017-01-11T07:29:38.115Z,1003.83
2017-01-11T07:30:03.690Z,1003.87
2017-01-11T07:30:29.282Z,1003.95
2017-01-11T07:30:54.847Z,1003.9
2017-01-11T07:31:20.389Z,1003.94
2017-01-11T07:31:46.045Z,1003.89
2017-01-11T07:32:11.638Z,1003.9
2017-01-11T07:32:37.201Z,1003.88
2017-01-11T07:33:02.759Z,1003.83
2017-01-11T07:33:28.356Z,1003.71
2017-01-11T07:33:53.905Z,1003.7
2017-01-11T07:34:19.460Z,1003.7
2017-01-11T07:34:45.089Z,1003.72
2017-01-11T07:35:10.641Z,1003.74
2017-01-11T07:35:36.192Z,1003.68
2017-01-11T07:36:01.755Z,1003.73
2017-01-11T07:36:27.326Z,1003.7
2017-01-11T07:36:52.899Z,1003.7
2017-01-11T07:37:18.470Z,1003.68
2017-01-11T07:37:44.048Z,1003.58
2017-01-11T07:38:09.670Z,1003.61
2017-01-11T07:38:35.236Z,1003.66
2017-01-11T07:39:00.780Z,1003.55
2017-01-11T07:39:26.374Z,1003.58
2017-01-11T07:39:51.957Z,1003.48
2017-01-11T07:40:17.639Z,1003.47
2017-01-11T07:40:43.206Z,1003.55
2017-01-11T07:41:08.833Z,1003.51
2017-01-11T07:41:34.379Z,1003.53
2017-01-11T07:41:59.949Z,1003.53
2017-01-11T07:42:25.668Z,1003.51
2017-01-11T07:42:51.231Z,1003.52
2017-01-11T07:43:16.865Z,1003.52
2017-01-11T07:43:42.470Z,1003.49
2017-01-11T07:44:08.084Z,1003.5
2017-01-11T07:44:33.686Z,1003.44
2017-01-11T07:44:59.271Z,1003.46
2017-01-11T07:45:24.830Z,1003.39
2017-01-11T07:45:50.387Z,1003.46
2017-01-11T07:46:15.957Z,1003.36
2017-01-11T07:46:41.559Z,1003.36
2017-01-11T07:47:07.119Z,1003.4
2017-01-11T07:47:32.682Z,1003.44
2017-01-11T07:47:58.239Z,1003.39
2017-01-11T07:48:23.807Z,1003.36
2017-01-11T07:48:49.477Z,1003.34
2017-01-11T07:49:15.039Z,1003.28
2017-01-11T07:49:40.607Z,1003.38
2017-01-11T07:50:06.181Z,1003.28
2017-01-11T07:50:31.898Z,1003.31
2017-01-11T07:50:57.450Z,1003.19
2017-01-11T07:51:23.200Z,1003.18
2017-01-11T07:51:48.789Z,1003.11
2017-01-11T07:52:14.398Z,1003.15
2017-01-11T07:52:40.064Z,1002.98
2017-01-11T07:53:05.670Z,1003.05
2017-01-11T07:53:31.316Z,1003.06
2017-01-11T07:53:56.917Z,1003.08
2017-01-11T07:54:22.480Z,1003.09
2017-01-11T07:54:48.073Z,1003.13
2017-01-11T07:55:46.231Z,1003.11
2017-01-11T07:56:11.800Z,1003.1
2017-01-11T07:56:37.370Z,1003.12
2017-01-11T07:57:02.934Z,1003.06
2017-01-11T07:57:28.509Z,1003.09
2017-01-11T07:57:54.145Z,1003.06
2017-01-11T07:58:19.729Z,1003.01
2017-01-11T07:58:45.302Z,1003.05
2017-01-11T07:59:10.884Z,1002.88
2017-01-11T07:59:36.455Z,1002.94
2017-01-11T08:00:02.075Z,1002.93
2017-01-11T08:00:27.650Z,1002.97
2017-01-11T08:00:53.200Z,1002.94
2017-01-11T08:01:18.763Z,1002.92
2017-01-11T08:01:44.330Z,1002.95
2017-01-11T08:02:09.898Z,1002.89
2017-01-11T08:02:35.513Z,1002.8
2017-01-11T08:03:01.077Z,1002.79
2017-01-11T08:03:26.653Z,1002.8
2017-01-11T08:03:52.238Z,1002.75
2017-01-11T08:04:17.773Z,1002.66
2017-01-11T08:04:43.339Z,1002.66
2017-01-11T08:05:08.895Z,1002.62
2017-01-11T08:05:34.448Z,1002.6
2017-01-11T08:06:00.012Z,1002.54
2017-01-11T08:06:25.591Z,1002.55
2017-01-11T08:06:51.199Z,1002.56
2017-01-11T08:07:17.358Z,1002.54
2017-01-11T08:07:42.912Z,1002.52
2017-01-11T08:08:08.482Z,1002.56
2017-01-11T08:08:34.167Z,1002.53
2017-01-11T08:08:59.758Z,1002.5
2017-01-11T08:09:25.311Z,1002.54
2017-01-11T08:09:50.870Z,1002.39
2017-01-11T08:10:16.441Z,1002.45
2017-01-11T08:10:42.013Z,1002.37
2017-01-11T08:11:07.566Z,1002.4
2017-01-11T08:11:33.134Z,1002.34
2017-01-11T08:11:58.686Z,1002.37
2017-01-11T08:12:24.334Z,1002.27
2017-01-11T08:12:49.913Z,1002.27
2017-01-11T08:13:15.476Z,1002.24
2017-01-11T08:13:41.044Z,1002.24
2017-01-11T08:14:06.644Z,1002.17
2017-01-11T08:14:32.247Z,1002.19
2017-01-11T08:14:57.820Z,1002.17
2017-01-11T08:15:23.397Z,1002.13
2017-01-11T08:15:48.968Z,1002.15
2017-01-11T08:16:14.529Z,1002.13
2017-01-11T08:16:40.087Z,1002.06
2017-01-11T08:17:05.639Z,1002.02
2017-01-11T08:17:31.209Z,1002.09
2017-01-11T08:17:56.911Z,1002.08
2017-01-11T08:18:22.467Z,1002
2017-01-11T08:18:48.040Z,1002.08
2017-01-11T08:19:13.666Z,1002
2017-01-11T08:19:39.275Z,1001.92
2017-01-11T08:20:04.829Z,1001.98
2017-01-11T08:20:30.520Z,1001.96
2017-01-11T08:20:56.145Z,1001.92
2017-01-11T08:21:21.700Z,1001.88
2017-01-11T08:21:47.258Z,1001.92
2017-01-11T08:22:12.821Z,1001.82
2017-01-11T08:22:38.366Z,1001.85
2017-01-11T08:23:03.934Z,1001.85
2017-01-11T08:23:29.484Z,1001.82
2017-01-11T08:23:55.097Z,1001.82
2017-01-11T08:24:20.670Z,1001.8
2017-01-11T08:24:46.228Z,1001.67
2017-01-11T08:25:11.805Z,1001.78
2017-01-11T08:25:37.487Z,1001.79
2017-01-11T08:26:03.592Z,1001.68
2017-01-11T08:26:29.198Z,1001.68
2017-01-11T08:26:54.821Z,1001.72
2017-01-11T08:27:20.380Z,1001.72
2017-01-11T08:27:45.944Z,1001.74
2017-01-11T08:28:11.561Z,1001.75
2017-01-11T08:28:37.132Z,1001.7
2017-01-11T08:29:02.679Z,1001.72
2017-01-11T08:29:28.245Z,1001.59
2017-01-11T08:29:53.803Z,1001.55
2017-01-11T08:31:12.415Z,1001.41
2017-01-11T08:33:19.590Z,1001.31
2017-01-11T08:33:53.476Z,1001.46
2017-01-11T08:34:19.015Z,1001.28
2017-01-11T08:34:44.559Z,1001.33
2017-01-11T08:35:10.090Z,1001.26
2017-01-11T08:35:35.626Z,1001.23
2017-01-11T08:36:01.169Z,1001.19
2017-01-11T08:36:26.775Z,1001.22
2017-01-11T08:36:52.317Z,1001.19
2017-01-11T08:37:17.869Z,1001.21
2017-01-11T08:37:43.432Z,1001.14
2017-01-11T08:38:08.972Z,1001.14
2017-01-11T08:38:34.584Z,1001.06
2017-01-11T08:39:00.157Z,1001.07
2017-01-11T08:39:25.751Z,1001.01
2017-01-11T08:39:51.306Z,1001.01
2017-01-11T08:40:16.889Z,1000.89
2017-01-11T08:40:42.451Z,1000.97
2017-01-11T08:41:08.020Z,1000.9
2017-01-11T08:41:33.649Z,1000.85
2017-01-11T08:41:59.284Z,1000.88
2017-01-11T08:42:24.826Z,1000.83
2017-01-11T08:42:50.398Z,1000.81
2017-01-11T08:43:15.975Z,1000.81
2017-01-11T08:43:41.568Z,1000.75
2017-01-11T08:44:07.130Z,1000.75
2017-01-11T08:44:32.679Z,1000.79
2017-01-11T08:44:58.263Z,1000.75
2017-01-11T08:45:23.852Z,1000.79
2017-01-11T08:45:49.407Z,1000.76
2017-01-11T08:46:14.980Z,1000.55
2017-01-11T08:46:40.551Z,1000.6
2017-01-11T08:47:38.647Z,1000.51
2017-01-11T08:48:04.197Z,1000.58
2017-01-11T08:48:29.764Z,1000.42
2017-01-11T08:48:55.319Z,1000.43
2017-01-11T08:49:20.867Z,1000.35
2017-01-11T08:49:47.437Z,1000.38
2017-01-11T08:50:13.169Z,1000.34
2017-01-11T08:50:38.738Z,1000.35
2017-01-11T08:51:04.310Z,1000.29
2017-01-11T08:51:29.873Z,1000.3
2017-01-11T08:51:55.470Z,1000.21
2017-01-11T08:52:21.057Z,1000.2
2017-01-11T08:52:46.624Z,1000.23
2017-01-11T08:53:12.283Z,1000.26
2017-01-11T08:53:37.865Z,1000.16
2017-01-11T08:54:03.436Z,1000.29
2017-01-11T08:54:28.994Z,1000.19
2017-01-11T08:54:54.550Z,1000.16
2017-01-11T08:55:20.132Z,1000.16
2017-01-11T08:55:45.702Z,1000.17
2017-01-11T08:56:11.271Z,1000.22
2017-01-11T08:56:36.940Z,1000.18
2017-01-11T08:57:02.535Z,1000.24
2017-01-11T08:57:28.127Z,1000.16
2017-01-11T08:57:53.705Z,1000.17
2017-01-11T08:58:19.240Z,1000.12
2017-01-11T08:58:44.891Z,1000.11
2017-01-11T08:59:10.476Z,1000.15
2017-01-11T08:59:36.042Z,1000.09
2017-01-11T09:00:01.670Z,1000.06
2017-01-11T09:00:27.159Z,1000.1
2017-01-11T09:00:52.699Z,1000.12
2017-01-11T09:01:18.257Z,1000.11
2017-01-11T09:01:43.835Z,1000.07
2017-01-11T09:02:09.479Z,1000.03
2017-01-11T09:02:35.315Z,1000.07
2017-01-11T09:03:00.880Z,1000.07
2017-01-11T09:03:26.453Z,1000.11
2017-01-11T09:03:52.024Z,999.98
2017-01-11T09:04:17.612Z,1000.12
2017-01-11T09:04:43.177Z,999.95
2017-01-11T09:05:08.752Z,999.92
2017-01-11T09:05:34.321Z,1000
2017-01-11T09:05:59.878Z,999.9
2017-01-11T09:06:25.487Z,999.98
2017-01-11T09:06:51.092Z,1000.01
2017-01-11T09:07:16.659Z,999.98
2017-01-11T09:07:42.249Z,999.96
2017-01-11T09:08:07.830Z,999.98
2017-01-11T09:08:33.398Z,1000.02
2017-01-11T09:08:58.968Z,999.95
2017-01-11T09:09:24.688Z,999.95
2017-01-11T09:09:50.245Z,999.97
2017-01-11T09:10:15.839Z,1000
2017-01-11T09:10:41.539Z,999.99
2017-01-11T09:11:07.142Z,999.91
2017-01-11T09:11:32.733Z,999.92
2017-01-11T09:11:58.289Z,999.92
2017-01-11T09:12:23.902Z,999.92
2017-01-11T09:12:49.422Z,999.84
2017-01-11T09:13:14.974Z,999.87
2017-01-11T09:13:40.535Z,999.83
2017-01-11T09:14:06.100Z,999.82
2017-01-11T09:14:31.700Z,999.78
2017-01-11T09:14:57.269Z,999.73
2017-01-11T09:15:22.844Z,999.65
2017-01-11T09:15:48.417Z,999.79
2017-01-11T09:16:14.126Z,999.83
2017-01-11T09:16:39.675Z,999.82
2017-01-11T09:17:05.313Z,999.82
2017-01-11T09:17:30.874Z,999.81
2017-01-11T09:17:56.423Z,999.87
2017-01-11T09:18:22.021Z,999.77
2017-01-11T09:18:47.670Z,999.72
2017-01-11T09:19:13.250Z,999.71